sensor_id;sensor_type;location;lat;lon;timestamp;P1;durP1;ratioP1;P2;durP2;ratioP2
42972;SDS011;28610;51.214;6.962;2023-06-24T00:02:11;15.15;;;8.45;;
42972;SDS011;28610;51.214;6.962;2023-06-24T00:04:57;13.60;;;8.18;;
42972;SDS011;28610;51.214;6.962;2023-06-24T00:07:44;14.35;;;8.32;;
42972;SDS011;28610;51.214;6.962;2023-06-24T00:10:29;15.85;;;8.23;;
42972;SDS011;28610;51.214;6.962;2023-06-24T00:13:15;13.27;;;8.38;;
42972;SDS011;28610;51.214;6.962;2023-06-24T00:16:02;13.20;;;7.90;;
42972;SDS011;28610;51.214;6.962;2023-06-24T00:18:50;12.73;;;8.38;;
42972;SDS011;28610;51.214;6.962;2023-06-24T00:21:36;16.67;;;8.68;;
42972;SDS011;28610;51.214;6.962;2023-06-24T00:24:23;13.27;;;8.32;;
42972;SDS011;28610;51.214;6.962;2023-06-24T00:27:09;14.68;;;8.00;;
42972;SDS011;28610;51.214;6.962;2023-06-24T00:29:54;12.20;;;8.57;;
42972;SDS011;28610;51.214;6.962;2023-06-24T00:32:41;12.57;;;8.25;;
42972;SDS011;28610;51.214;6.962;2023-06-24T00:35:27;15.43;;;9.00;;
42972;SDS011;28610;51.214;6.962;2023-06-24T00:38:13;17.13;;;8.48;;
42972;SDS011;28610;51.214;6.962;2023-06-24T00:40:58;13.13;;;8.55;;
42972;SDS011;28610;51.214;6.962;2023-06-24T00:43:44;13.23;;;8.07;;
42972;SDS011;28610;51.214;6.962;2023-06-24T00:46:30;12.77;;;7.80;;
42972;SDS011;28610;51.214;6.962;2023-06-24T00:49:18;15.07;;;8.23;;
42972;SDS011;28610;51.214;6.962;2023-06-24T00:52:04;14.20;;;7.70;;
42972;SDS011;28610;51.214;6.962;2023-06-24T00:54:50;15.13;;;8.52;;
42972;SDS011;28610;51.214;6.962;2023-06-24T00:57:36;12.05;;;8.00;;
42972;SDS011;28610;51.214;6.962;2023-06-24T01:00:22;14.00;;;8.20;;
42972;SDS011;28610;51.214;6.962;2023-06-24T01:03:08;13.10;;;8.02;;
42972;SDS011;28610;51.214;6.962;2023-06-24T01:05:59;15.55;;;7.88;;
42972;SDS011;28610;51.214;6.962;2023-06-24T01:08:45;15.25;;;8.05;;
42972;SDS011;28610;51.214;6.962;2023-06-24T01:11:34;15.57;;;8.30;;
42972;SDS011;28610;51.214;6.962;2023-06-24T01:14:19;13.55;;;7.82;;
42972;SDS011;28610;51.214;6.962;2023-06-24T01:17:11;14.07;;;7.47;;
42972;SDS011;28610;51.214;6.962;2023-06-24T01:20:01;12.88;;;7.63;;
42972;SDS011;28610;51.214;6.962;2023-06-24T01:23:11;13.13;;;7.93;;
42972;SDS011;28610;51.214;6.962;2023-06-24T01:26:08;15.85;;;8.65;;
42972;SDS011;28610;51.214;6.962;2023-06-24T01:29:06;14.65;;;8.18;;
42972;SDS011;28610;51.214;6.962;2023-06-24T01:31:56;16.05;;;8.60;;
42972;SDS011;28610;51.214;6.962;2023-06-24T01:34:46;16.85;;;8.98;;
42972;SDS011;28610;51.214;6.962;2023-06-24T01:37:35;14.57;;;8.00;;
42972;SDS011;28610;51.214;6.962;2023-06-24T01:40:25;12.10;;;7.43;;
42972;SDS011;28610;51.214;6.962;2023-06-24T01:43:11;12.20;;;8.30;;
42972;SDS011;28610;51.214;6.962;2023-06-24T01:45:57;14.80;;;8.00;;
42972;SDS011;28610;51.214;6.962;2023-06-24T01:48:45;14.70;;;8.15;;
42972;SDS011;28610;51.214;6.962;2023-06-24T01:51:31;12.60;;;7.97;;
42972;SDS011;28610;51.214;6.962;2023-06-24T01:54:19;16.15;;;9.00;;
42972;SDS011;28610;51.214;6.962;2023-06-24T01:57:06;14.88;;;8.98;;
42972;SDS011;28610;51.214;6.962;2023-06-24T01:59:53;14.63;;;8.90;;
42972;SDS011;28610;51.214;6.962;2023-06-24T02:02:40;17.08;;;8.73;;
42972;SDS011;28610;51.214;6.962;2023-06-24T02:05:27;14.13;;;8.82;;
42972;SDS011;28610;51.214;6.962;2023-06-24T02:08:14;15.45;;;8.80;;
42972;SDS011;28610;51.214;6.962;2023-06-24T02:11:01;15.85;;;8.90;;
42972;SDS011;28610;51.214;6.962;2023-06-24T02:13:47;16.52;;;8.55;;
42972;SDS011;28610;51.214;6.962;2023-06-24T02:16:33;20.25;;;7.85;;
42972;SDS011;28610;51.214;6.962;2023-06-24T02:19:20;15.20;;;7.95;;
42972;SDS011;28610;51.214;6.962;2023-06-24T02:22:07;12.98;;;7.88;;
42972;SDS011;28610;51.214;6.962;2023-06-24T02:24:54;12.02;;;7.97;;
42972;SDS011;28610;51.214;6.962;2023-06-24T02:27:40;15.30;;;7.80;;
42972;SDS011;28610;51.214;6.962;2023-06-24T02:30:26;12.75;;;7.65;;
42972;SDS011;28610;51.214;6.962;2023-06-24T02:33:12;13.73;;;7.95;;
42972;SDS011;28610;51.214;6.962;2023-06-24T02:35:57;13.45;;;8.20;;
42972;SDS011;28610;51.214;6.962;2023-06-24T02:38:45;12.70;;;8.13;;
42972;SDS011;28610;51.214;6.962;2023-06-24T02:41:31;13.15;;;7.63;;
42972;SDS011;28610;51.214;6.962;2023-06-24T02:44:16;15.50;;;8.10;;
42972;SDS011;28610;51.214;6.962;2023-06-24T02:47:02;13.60;;;8.57;;
42972;SDS011;28610;51.214;6.962;2023-06-24T02:49:48;11.45;;;7.82;;
42972;SDS011;28610;51.214;6.962;2023-06-24T02:52:34;14.20;;;8.23;;
42972;SDS011;28610;51.214;6.962;2023-06-24T02:55:22;17.20;;;8.02;;
42972;SDS011;28610;51.214;6.962;2023-06-24T02:58:09;19.10;;;8.90;;
42972;SDS011;28610;51.214;6.962;2023-06-24T03:00:55;15.48;;;8.18;;
42972;SDS011;28610;51.214;6.962;2023-06-24T03:03:42;13.57;;;7.63;;
42972;SDS011;28610;51.214;6.962;2023-06-24T03:06:33;13.13;;;8.48;;
42972;SDS011;28610;51.214;6.962;2023-06-24T03:09:20;18.88;;;11.02;;
42972;SDS011;28610;51.214;6.962;2023-06-24T03:12:08;18.58;;;9.48;;
42972;SDS011;28610;51.214;6.962;2023-06-24T03:14:54;16.30;;;8.38;;
42972;SDS011;28610;51.214;6.962;2023-06-24T03:17:40;14.23;;;8.95;;
42972;SDS011;28610;51.214;6.962;2023-06-24T03:20:25;15.65;;;8.85;;
42972;SDS011;28610;51.214;6.962;2023-06-24T03:23:11;16.40;;;9.10;;
42972;SDS011;28610;51.214;6.962;2023-06-24T03:25:57;18.67;;;9.40;;
42972;SDS011;28610;51.214;6.962;2023-06-24T03:28:44;15.93;;;8.07;;
42972;SDS011;28610;51.214;6.962;2023-06-24T03:31:29;17.85;;;8.25;;
42972;SDS011;28610;51.214;6.962;2023-06-24T03:34:15;14.27;;;8.10;;
42972;SDS011;28610;51.214;6.962;2023-06-24T03:37:01;14.10;;;8.15;;
42972;SDS011;28610;51.214;6.962;2023-06-24T03:39:48;11.65;;;7.65;;
42972;SDS011;28610;51.214;6.962;2023-06-24T03:42:33;13.57;;;7.60;;
42972;SDS011;28610;51.214;6.962;2023-06-24T03:45:20;13.50;;;7.25;;
42972;SDS011;28610;51.214;6.962;2023-06-24T03:48:06;10.48;;;7.22;;
42972;SDS011;28610;51.214;6.962;2023-06-24T03:50:52;11.82;;;7.45;;
42972;SDS011;28610;51.214;6.962;2023-06-24T03:53:38;10.82;;;7.10;;
42972;SDS011;28610;51.214;6.962;2023-06-24T03:56:24;16.25;;;7.85;;
42972;SDS011;28610;51.214;6.962;2023-06-24T03:59:09;14.30;;;7.53;;
42972;SDS011;28610;51.214;6.962;2023-06-24T04:01:57;11.13;;;7.20;;
42972;SDS011;28610;51.214;6.962;2023-06-24T04:04:43;12.05;;;7.53;;
42972;SDS011;28610;51.214;6.962;2023-06-24T04:07:29;12.32;;;7.22;;
42972;SDS011;28610;51.214;6.962;2023-06-24T04:10:14;12.27;;;6.80;;
42972;SDS011;28610;51.214;6.962;2023-06-24T04:13:00;15.45;;;8.27;;
42972;SDS011;28610;51.214;6.962;2023-06-24T04:15:46;13.10;;;8.25;;
42972;SDS011;28610;51.214;6.962;2023-06-24T04:18:33;14.07;;;8.63;;
42972;SDS011;28610;51.214;6.962;2023-06-24T04:21:20;13.32;;;8.45;;
42972;SDS011;28610;51.214;6.962;2023-06-24T04:24:07;14.65;;;8.95;;
42972;SDS011;28610;51.214;6.962;2023-06-24T04:26:52;14.73;;;7.65;;
42972;SDS011;28610;51.214;6.962;2023-06-24T04:29:39;12.23;;;8.07;;
42972;SDS011;28610;51.214;6.962;2023-06-24T04:32:24;16.02;;;8.32;;
42972;SDS011;28610;51.214;6.962;2023-06-24T04:35:11;14.48;;;8.52;;
42972;SDS011;28610;51.214;6.962;2023-06-24T04:37:57;15.65;;;8.45;;
42972;SDS011;28610;51.214;6.962;2023-06-24T04:40:43;16.73;;;8.45;;
42972;SDS011;28610;51.214;6.962;2023-06-24T04:43:29;16.20;;;8.55;;
42972;SDS011;28610;51.214;6.962;2023-06-24T04:46:15;13.70;;;8.30;;
42972;SDS011;28610;51.214;6.962;2023-06-24T04:49:01;13.43;;;8.00;;
42972;SDS011;28610;51.214;6.962;2023-06-24T04:51:47;12.82;;;8.25;;
42972;SDS011;28610;51.214;6.962;2023-06-24T04:54:33;13.05;;;7.63;;
42972;SDS011;28610;51.214;6.962;2023-06-24T04:57:23;13.18;;;7.50;;
42972;SDS011;28610;51.214;6.962;2023-06-24T05:00:09;13.65;;;7.70;;
42972;SDS011;28610;51.214;6.962;2023-06-24T05:02:55;12.90;;;7.00;;
42972;SDS011;28610;51.214;6.962;2023-06-24T05:05:40;12.60;;;7.70;;
42972;SDS011;28610;51.214;6.962;2023-06-24T05:08:27;12.40;;;7.50;;
42972;SDS011;28610;51.214;6.962;2023-06-24T05:11:13;13.82;;;8.13;;
42972;SDS011;28610;51.214;6.962;2023-06-24T05:13:59;12.55;;;7.47;;
42972;SDS011;28610;51.214;6.962;2023-06-24T05:16:45;14.38;;;7.95;;
42972;SDS011;28610;51.214;6.962;2023-06-24T05:19:31;14.57;;;8.10;;
42972;SDS011;28610;51.214;6.962;2023-06-24T05:22:16;11.88;;;7.85;;
42972;SDS011;28610;51.214;6.962;2023-06-24T05:25:04;13.23;;;7.53;;
42972;SDS011;28610;51.214;6.962;2023-06-24T05:27:50;12.23;;;7.28;;
42972;SDS011;28610;51.214;6.962;2023-06-24T05:30:35;10.77;;;6.60;;
42972;SDS011;28610;51.214;6.962;2023-06-24T05:33:21;14.73;;;7.82;;
42972;SDS011;28610;51.214;6.962;2023-06-24T05:36:06;10.25;;;6.78;;
42972;SDS011;28610;51.214;6.962;2023-06-24T05:38:52;13.05;;;7.28;;
42972;SDS011;28610;51.214;6.962;2023-06-24T05:41:39;13.20;;;7.60;;
42972;SDS011;28610;51.214;6.962;2023-06-24T05:44:25;13.13;;;7.20;;
42972;SDS011;28610;51.214;6.962;2023-06-24T05:47:11;13.20;;;7.15;;
42972;SDS011;28610;51.214;6.962;2023-06-24T05:49:56;11.95;;;7.32;;
42972;SDS011;28610;51.214;6.962;2023-06-24T05:52:42;10.88;;;6.80;;
42972;SDS011;28610;51.214;6.962;2023-06-24T05:55:28;12.45;;;6.75;;
42972;SDS011;28610;51.214;6.962;2023-06-24T05:58:15;15.50;;;7.80;;
42972;SDS011;28610;51.214;6.962;2023-06-24T06:01:01;13.70;;;7.00;;
42972;SDS011;28610;51.214;6.962;2023-06-24T06:03:46;11.50;;;7.40;;
42972;SDS011;28610;51.214;6.962;2023-06-24T06:06:32;13.45;;;7.07;;
42972;SDS011;28610;51.214;6.962;2023-06-24T06:09:17;14.05;;;8.20;;
42972;SDS011;28610;51.214;6.962;2023-06-24T06:12:03;12.50;;;7.70;;
42972;SDS011;28610;51.214;6.962;2023-06-24T06:14:51;11.55;;;8.00;;
42972;SDS011;28610;51.214;6.962;2023-06-24T06:17:37;12.25;;;7.93;;
42972;SDS011;28610;51.214;6.962;2023-06-24T06:20:24;10.70;;;7.60;;
42972;SDS011;28610;51.214;6.962;2023-06-24T06:23:10;14.55;;;9.02;;
42972;SDS011;28610;51.214;6.962;2023-06-24T06:25:55;17.20;;;9.43;;
42972;SDS011;28610;51.214;6.962;2023-06-24T06:28:41;17.63;;;9.48;;
42972;SDS011;28610;51.214;6.962;2023-06-24T06:31:28;13.38;;;8.65;;
42972;SDS011;28610;51.214;6.962;2023-06-24T06:34:14;19.00;;;9.32;;
42972;SDS011;28610;51.214;6.962;2023-06-24T06:36:59;14.52;;;8.77;;
42972;SDS011;28610;51.214;6.962;2023-06-24T06:39:45;14.20;;;8.90;;
42972;SDS011;28610;51.214;6.962;2023-06-24T06:42:31;15.18;;;9.77;;
42972;SDS011;28610;51.214;6.962;2023-06-24T06:45:16;14.50;;;8.55;;
42972;SDS011;28610;51.214;6.962;2023-06-24T06:48:03;15.10;;;9.63;;
42972;SDS011;28610;51.214;6.962;2023-06-24T06:50:51;15.30;;;9.65;;
42972;SDS011;28610;51.214;6.962;2023-06-24T06:53:37;15.75;;;9.90;;
42972;SDS011;28610;51.214;6.962;2023-06-24T06:56:23;19.00;;;10.30;;
42972;SDS011;28610;51.214;6.962;2023-06-24T06:59:09;17.35;;;11.40;;
42972;SDS011;28610;51.214;6.962;2023-06-24T07:01:55;18.95;;;11.90;;
42972;SDS011;28610;51.214;6.962;2023-06-24T07:04:42;18.27;;;11.02;;
42972;SDS011;28610;51.214;6.962;2023-06-24T07:07:28;17.35;;;10.15;;
42972;SDS011;28610;51.214;6.962;2023-06-24T07:10:14;19.73;;;11.57;;
42972;SDS011;28610;51.214;6.962;2023-06-24T07:13:00;23.10;;;12.55;;
42972;SDS011;28610;51.214;6.962;2023-06-24T07:15:46;17.15;;;12.05;;
42972;SDS011;28610;51.214;6.962;2023-06-24T07:18:31;19.38;;;12.57;;
42972;SDS011;28610;51.214;6.962;2023-06-24T07:21:18;19.98;;;13.27;;
42972;SDS011;28610;51.214;6.962;2023-06-24T07:24:05;17.80;;;12.05;;
42972;SDS011;28610;51.214;6.962;2023-06-24T07:26:51;22.20;;;13.35;;
42972;SDS011;28610;51.214;6.962;2023-06-24T07:29:36;20.35;;;12.45;;
42972;SDS011;28610;51.214;6.962;2023-06-24T07:32:22;19.20;;;13.10;;
42972;SDS011;28610;51.214;6.962;2023-06-24T07:35:08;23.05;;;13.95;;
42972;SDS011;28610;51.214;6.962;2023-06-24T07:37:55;20.35;;;12.07;;
42972;SDS011;28610;51.214;6.962;2023-06-24T07:40:41;24.20;;;13.07;;
42972;SDS011;28610;51.214;6.962;2023-06-24T07:43:27;23.52;;;13.88;;
42972;SDS011;28610;51.214;6.962;2023-06-24T07:46:12;25.73;;;12.65;;
42972;SDS011;28610;51.214;6.962;2023-06-24T07:48:58;19.88;;;12.30;;
42972;SDS011;28610;51.214;6.962;2023-06-24T07:51:44;20.73;;;13.20;;
42972;SDS011;28610;51.214;6.962;2023-06-24T07:54:31;19.55;;;12.60;;
42972;SDS011;28610;51.214;6.962;2023-06-24T07:57:17;24.58;;;13.07;;
42972;SDS011;28610;51.214;6.962;2023-06-24T08:00:02;20.80;;;12.20;;
42972;SDS011;28610;51.214;6.962;2023-06-24T08:02:53;17.70;;;11.82;;
42972;SDS011;28610;51.214;6.962;2023-06-24T08:05:39;18.40;;;11.45;;
42972;SDS011;28610;51.214;6.962;2023-06-24T08:08:24;19.70;;;11.80;;
42972;SDS011;28610;51.214;6.962;2023-06-24T08:11:11;19.17;;;10.90;;
42972;SDS011;28610;51.214;6.962;2023-06-24T08:13:57;21.98;;;11.25;;
42972;SDS011;28610;51.214;6.962;2023-06-24T08:16:43;18.50;;;11.05;;
42972;SDS011;28610;51.214;6.962;2023-06-24T08:19:28;19.52;;;9.90;;
42972;SDS011;28610;51.214;6.962;2023-06-24T08:22:14;17.75;;;10.57;;
42972;SDS011;28610;51.214;6.962;2023-06-24T08:24:59;19.17;;;10.38;;
42972;SDS011;28610;51.214;6.962;2023-06-24T08:27:46;24.70;;;11.15;;
42972;SDS011;28610;51.214;6.962;2023-06-24T08:30:32;18.50;;;10.57;;
42972;SDS011;28610;51.214;6.962;2023-06-24T08:33:18;19.60;;;11.35;;
42972;SDS011;28610;51.214;6.962;2023-06-24T08:36:03;16.33;;;10.45;;
42972;SDS011;28610;51.214;6.962;2023-06-24T08:38:49;18.95;;;9.88;;
42972;SDS011;28610;51.214;6.962;2023-06-24T08:41:35;18.50;;;9.77;;
42972;SDS011;28610;51.214;6.962;2023-06-24T08:44:22;16.05;;;9.98;;
42972;SDS011;28610;51.214;6.962;2023-06-24T08:47:07;16.17;;;9.27;;
42972;SDS011;28610;51.214;6.962;2023-06-24T08:49:55;17.50;;;8.82;;
42972;SDS011;28610;51.214;6.962;2023-06-24T08:52:48;16.95;;;9.32;;
42972;SDS011;28610;51.214;6.962;2023-06-24T08:55:36;16.48;;;8.82;;
42972;SDS011;28610;51.214;6.962;2023-06-24T08:58:24;17.05;;;8.35;;
42972;SDS011;28610;51.214;6.962;2023-06-24T09:01:12;14.38;;;9.35;;
42972;SDS011;28610;51.214;6.962;2023-06-24T09:03:58;18.40;;;9.95;;
42972;SDS011;28610;51.214;6.962;2023-06-24T09:06:43;13.27;;;7.93;;
42972;SDS011;28610;51.214;6.962;2023-06-24T09:09:30;13.57;;;8.43;;
42972;SDS011;28610;51.214;6.962;2023-06-24T09:12:15;16.65;;;8.95;;
42972;SDS011;28610;51.214;6.962;2023-06-24T09:15:01;16.50;;;8.75;;
42972;SDS011;28610;51.214;6.962;2023-06-24T09:17:49;15.75;;;9.35;;
42972;SDS011;28610;51.214;6.962;2023-06-24T09:20:35;17.88;;;8.52;;
42972;SDS011;28610;51.214;6.962;2023-06-24T09:23:24;13.85;;;7.28;;
42972;SDS011;28610;51.214;6.962;2023-06-24T09:26:11;12.98;;;7.93;;
42972;SDS011;28610;51.214;6.962;2023-06-24T09:28:57;13.50;;;8.48;;
42972;SDS011;28610;51.214;6.962;2023-06-24T09:31:47;18.67;;;8.32;;
42972;SDS011;28610;51.214;6.962;2023-06-24T09:34:34;15.57;;;8.20;;
42972;SDS011;28610;51.214;6.962;2023-06-24T09:37:23;14.05;;;7.45;;
42972;SDS011;28610;51.214;6.962;2023-06-24T09:40:14;13.20;;;6.75;;
42972;SDS011;28610;51.214;6.962;2023-06-24T09:43:00;15.52;;;6.70;;
42972;SDS011;28610;51.214;6.962;2023-06-24T09:45:46;12.95;;;5.88;;
42972;SDS011;28610;51.214;6.962;2023-06-24T09:48:36;13.48;;;5.90;;
42972;SDS011;28610;51.214;6.962;2023-06-24T09:51:23;11.60;;;5.43;;
42972;SDS011;28610;51.214;6.962;2023-06-24T09:54:11;11.73;;;5.80;;
42972;SDS011;28610;51.214;6.962;2023-06-24T09:56:58;8.82;;;4.97;;
42972;SDS011;28610;51.214;6.962;2023-06-24T09:59:44;10.13;;;4.65;;
42972;SDS011;28610;51.214;6.962;2023-06-24T10:02:30;11.90;;;4.40;;
42972;SDS011;28610;51.214;6.962;2023-06-24T10:05:16;10.57;;;5.20;;
42972;SDS011;28610;51.214;6.962;2023-06-24T10:08:04;8.65;;;5.30;;
42972;SDS011;28610;51.214;6.962;2023-06-24T10:10:50;10.00;;;4.78;;
42972;SDS011;28610;51.214;6.962;2023-06-24T10:13:37;10.73;;;6.45;;
42972;SDS011;28610;51.214;6.962;2023-06-24T10:16:23;10.35;;;6.00;;
42972;SDS011;28610;51.214;6.962;2023-06-24T10:19:08;9.23;;;5.43;;
42972;SDS011;28610;51.214;6.962;2023-06-24T10:21:57;9.63;;;4.80;;
42972;SDS011;28610;51.214;6.962;2023-06-24T10:24:45;7.88;;;4.72;;
42972;SDS011;28610;51.214;6.962;2023-06-24T10:27:32;8.52;;;4.68;;
42972;SDS011;28610;51.214;6.962;2023-06-24T10:30:23;10.07;;;4.70;;
42972;SDS011;28610;51.214;6.962;2023-06-24T10:33:12;9.68;;;4.93;;
42972;SDS011;28610;51.214;6.962;2023-06-24T10:35:58;8.02;;;4.75;;
42972;SDS011;28610;51.214;6.962;2023-06-24T10:38:54;12.77;;;5.38;;
42972;SDS011;28610;51.214;6.962;2023-06-24T10:41:42;11.20;;;6.55;;
42972;SDS011;28610;51.214;6.962;2023-06-24T10:44:28;10.85;;;5.50;;
42972;SDS011;28610;51.214;6.962;2023-06-24T10:47:13;11.52;;;5.57;;
42972;SDS011;28610;51.214;6.962;2023-06-24T10:49:59;10.50;;;5.15;;
42972;SDS011;28610;51.214;6.962;2023-06-24T10:52:45;10.70;;;5.43;;
42972;SDS011;28610;51.214;6.962;2023-06-24T10:55:31;9.50;;;5.25;;
42972;SDS011;28610;51.214;6.962;2023-06-24T10:58:18;9.45;;;5.10;;
42972;SDS011;28610;51.214;6.962;2023-06-24T11:01:08;10.52;;;5.07;;
42972;SDS011;28610;51.214;6.962;2023-06-24T11:03:54;12.20;;;5.82;;
42972;SDS011;28610;51.214;6.962;2023-06-24T11:06:40;10.18;;;5.22;;
42972;SDS011;28610;51.214;6.962;2023-06-24T11:09:26;11.90;;;5.20;;
42972;SDS011;28610;51.214;6.962;2023-06-24T11:12:12;9.00;;;5.00;;
42972;SDS011;28610;51.214;6.962;2023-06-24T11:15:01;6.90;;;3.70;;
42972;SDS011;28610;51.214;6.962;2023-06-24T11:17:50;11.73;;;3.92;;
42972;SDS011;28610;51.214;6.962;2023-06-24T11:20:36;7.20;;;3.63;;
42972;SDS011;28610;51.214;6.962;2023-06-24T11:23:22;8.85;;;3.80;;
42972;SDS011;28610;51.214;6.962;2023-06-24T11:26:08;8.20;;;3.22;;
42972;SDS011;28610;51.214;6.962;2023-06-24T11:28:53;12.30;;;3.80;;
42972;SDS011;28610;51.214;6.962;2023-06-24T11:31:40;8.25;;;4.20;;
42972;SDS011;28610;51.214;6.962;2023-06-24T11:34:26;8.57;;;4.47;;
42972;SDS011;28610;51.214;6.962;2023-06-24T11:37:12;7.90;;;3.65;;
42972;SDS011;28610;51.214;6.962;2023-06-24T11:40:01;9.60;;;4.90;;
42972;SDS011;28610;51.214;6.962;2023-06-24T11:42:48;8.15;;;4.18;;
42972;SDS011;28610;51.214;6.962;2023-06-24T11:45:34;9.27;;;4.38;;
42972;SDS011;28610;51.214;6.962;2023-06-24T11:48:21;9.73;;;3.80;;
42972;SDS011;28610;51.214;6.962;2023-06-24T11:51:11;9.90;;;3.55;;
42972;SDS011;28610;51.214;6.962;2023-06-24T11:53:58;7.38;;;3.60;;
42972;SDS011;28610;51.214;6.962;2023-06-24T11:56:44;7.85;;;3.50;;
42972;SDS011;28610;51.214;6.962;2023-06-24T11:59:30;6.60;;;3.40;;
42972;SDS011;28610;51.214;6.962;2023-06-24T12:02:17;7.32;;;3.20;;
42972;SDS011;28610;51.214;6.962;2023-06-24T12:05:04;7.68;;;3.35;;
42972;SDS011;28610;51.214;6.962;2023-06-24T12:07:50;8.07;;;3.67;;
42972;SDS011;28610;51.214;6.962;2023-06-24T12:10:36;8.13;;;3.42;;
42972;SDS011;28610;51.214;6.962;2023-06-24T12:13:22;6.20;;;3.13;;
42972;SDS011;28610;51.214;6.962;2023-06-24T12:16:08;7.70;;;3.85;;
42972;SDS011;28610;51.214;6.962;2023-06-24T12:18:53;6.97;;;3.60;;
42972;SDS011;28610;51.214;6.962;2023-06-24T12:21:40;10.02;;;4.05;;
42972;SDS011;28610;51.214;6.962;2023-06-24T12:24:26;9.23;;;3.45;;
42972;SDS011;28610;51.214;6.962;2023-06-24T12:27:12;6.70;;;3.63;;
42972;SDS011;28610;51.214;6.962;2023-06-24T12:29:57;7.88;;;3.40;;
42972;SDS011;28610;51.214;6.962;2023-06-24T12:32:43;4.68;;;3.20;;
42972;SDS011;28610;51.214;6.962;2023-06-24T12:35:28;8.45;;;3.50;;
42972;SDS011;28610;51.214;6.962;2023-06-24T12:38:15;8.40;;;3.83;;
42972;SDS011;28610;51.214;6.962;2023-06-24T12:41:01;6.90;;;3.75;;
42972;SDS011;28610;51.214;6.962;2023-06-24T12:43:47;8.80;;;3.13;;
42972;SDS011;28610;51.214;6.962;2023-06-24T12:46:32;10.15;;;3.47;;
42972;SDS011;28610;51.214;6.962;2023-06-24T12:49:18;8.45;;;4.00;;
42972;SDS011;28610;51.214;6.962;2023-06-24T12:52:04;7.35;;;3.83;;
42972;SDS011;28610;51.214;6.962;2023-06-24T12:54:51;7.40;;;3.80;;
42972;SDS011;28610;51.214;6.962;2023-06-24T12:57:37;7.03;;;3.70;;
42972;SDS011;28610;51.214;6.962;2023-06-24T13:00:22;7.00;;;3.80;;
42972;SDS011;28610;51.214;6.962;2023-06-24T13:03:08;7.72;;;3.45;;
42972;SDS011;28610;51.214;6.962;2023-06-24T13:05:54;7.53;;;3.55;;
42972;SDS011;28610;51.214;6.962;2023-06-24T13:08:41;5.43;;;3.25;;
42972;SDS011;28610;51.214;6.962;2023-06-24T13:11:28;7.63;;;3.78;;
42972;SDS011;28610;51.214;6.962;2023-06-24T13:14:14;6.63;;;3.40;;
42972;SDS011;28610;51.214;6.962;2023-06-24T13:16:59;7.25;;;3.65;;
42972;SDS011;28610;51.214;6.962;2023-06-24T13:19:45;8.75;;;4.72;;
42972;SDS011;28610;51.214;6.962;2023-06-24T13:22:30;8.57;;;4.60;;
42972;SDS011;28610;51.214;6.962;2023-06-24T13:25:16;8.57;;;3.83;;
42972;SDS011;28610;51.214;6.962;2023-06-24T13:28:03;6.38;;;3.40;;
42972;SDS011;28610;51.214;6.962;2023-06-24T13:30:49;6.05;;;3.17;;
42972;SDS011;28610;51.214;6.962;2023-06-24T13:33:38;7.32;;;3.72;;
42972;SDS011;28610;51.214;6.962;2023-06-24T13:36:30;7.72;;;3.45;;
42972;SDS011;28610;51.214;6.962;2023-06-24T13:39:18;6.85;;;3.55;;
42972;SDS011;28610;51.214;6.962;2023-06-24T13:42:07;9.35;;;3.25;;
42972;SDS011;28610;51.214;6.962;2023-06-24T13:44:54;8.15;;;3.25;;
42972;SDS011;28610;51.214;6.962;2023-06-24T13:47:40;4.88;;;2.95;;
42972;SDS011;28610;51.214;6.962;2023-06-24T13:50:25;6.57;;;2.92;;
42972;SDS011;28610;51.214;6.962;2023-06-24T13:53:12;5.22;;;3.03;;
42972;SDS011;28610;51.214;6.962;2023-06-24T13:55:58;7.32;;;3.40;;
42972;SDS011;28610;51.214;6.962;2023-06-24T13:58:43;4.15;;;2.65;;
42972;SDS011;28610;51.214;6.962;2023-06-24T14:01:30;5.97;;;3.05;;
42972;SDS011;28610;51.214;6.962;2023-06-24T14:04:16;4.30;;;2.90;;
42972;SDS011;28610;51.214;6.962;2023-06-24T14:07:02;5.78;;;2.95;;
42972;SDS011;28610;51.214;6.962;2023-06-24T14:09:48;5.50;;;2.88;;
42972;SDS011;28610;51.214;6.962;2023-06-24T14:12:34;5.63;;;2.83;;
42972;SDS011;28610;51.214;6.962;2023-06-24T14:15:20;4.95;;;2.75;;
42972;SDS011;28610;51.214;6.962;2023-06-24T14:18:07;6.05;;;3.20;;
42972;SDS011;28610;51.214;6.962;2023-06-24T14:20:54;5.43;;;3.00;;
42972;SDS011;28610;51.214;6.962;2023-06-24T14:23:39;4.40;;;2.88;;
42972;SDS011;28610;51.214;6.962;2023-06-24T14:26:25;5.10;;;3.25;;
42972;SDS011;28610;51.214;6.962;2023-06-24T14:29:11;8.55;;;3.15;;
42972;SDS011;28610;51.214;6.962;2023-06-24T14:31:56;4.05;;;2.70;;
42972;SDS011;28610;51.214;6.962;2023-06-24T14:34:43;5.63;;;2.80;;
42972;SDS011;28610;51.214;6.962;2023-06-24T14:37:30;5.55;;;3.00;;
42972;SDS011;28610;51.214;6.962;2023-06-24T14:40:16;5.32;;;3.00;;
42972;SDS011;28610;51.214;6.962;2023-06-24T14:43:01;6.32;;;2.90;;
42972;SDS011;28610;51.214;6.962;2023-06-24T14:45:47;4.43;;;2.80;;
42972;SDS011;28610;51.214;6.962;2023-06-24T14:48:33;4.97;;;2.47;;
42972;SDS011;28610;51.214;6.962;2023-06-24T14:51:20;4.22;;;2.60;;
42972;SDS011;28610;51.214;6.962;2023-06-24T14:54:07;3.80;;;2.53;;
42972;SDS011;28610;51.214;6.962;2023-06-24T14:56:52;5.00;;;2.78;;
42972;SDS011;28610;51.214;6.962;2023-06-24T14:59:38;5.57;;;2.65;;
42972;SDS011;28610;51.214;6.962;2023-06-24T15:02:24;4.88;;;2.60;;
42972;SDS011;28610;51.214;6.962;2023-06-24T15:05:10;4.93;;;2.63;;
42972;SDS011;28610;51.214;6.962;2023-06-24T15:07:57;5.25;;;2.60;;
42972;SDS011;28610;51.214;6.962;2023-06-24T15:10:43;4.90;;;2.55;;
42972;SDS011;28610;51.214;6.962;2023-06-24T15:13:28;8.63;;;2.80;;
42972;SDS011;28610;51.214;6.962;2023-06-24T15:16:14;6.13;;;2.92;;
42972;SDS011;28610;51.214;6.962;2023-06-24T15:19:00;5.55;;;2.80;;
42972;SDS011;28610;51.214;6.962;2023-06-24T15:21:45;5.95;;;2.75;;
42972;SDS011;28610;51.214;6.962;2023-06-24T15:24:32;4.60;;;2.60;;
42972;SDS011;28610;51.214;6.962;2023-06-24T15:27:18;4.63;;;2.50;;
42972;SDS011;28610;51.214;6.962;2023-06-24T15:30:04;4.95;;;2.55;;
42972;SDS011;28610;51.214;6.962;2023-06-24T15:32:49;4.05;;;2.47;;
42972;SDS011;28610;51.214;6.962;2023-06-24T15:35:35;4.82;;;2.85;;
42972;SDS011;28610;51.214;6.962;2023-06-24T15:38:21;4.00;;;2.53;;
42972;SDS011;28610;51.214;6.962;2023-06-24T15:41:07;4.50;;;2.78;;
42972;SDS011;28610;51.214;6.962;2023-06-24T15:43:53;5.18;;;2.97;;
42972;SDS011;28610;51.214;6.962;2023-06-24T15:46:40;7.57;;;2.75;;
42972;SDS011;28610;51.214;6.962;2023-06-24T15:49:28;7.20;;;2.75;;
42972;SDS011;28610;51.214;6.962;2023-06-24T15:52:13;4.90;;;3.00;;
42972;SDS011;28610;51.214;6.962;2023-06-24T15:54:59;4.10;;;2.50;;
42972;SDS011;28610;51.214;6.962;2023-06-24T15:57:46;5.43;;;2.72;;
42972;SDS011;28610;51.214;6.962;2023-06-24T16:00:32;5.75;;;3.15;;
42972;SDS011;28610;51.214;6.962;2023-06-24T16:03:17;5.88;;;2.63;;
42972;SDS011;28610;51.214;6.962;2023-06-24T16:06:03;6.25;;;3.38;;
42972;SDS011;28610;51.214;6.962;2023-06-24T16:08:49;5.60;;;3.13;;
42972;SDS011;28610;51.214;6.962;2023-06-24T16:11:35;4.63;;;2.97;;
42972;SDS011;28610;51.214;6.962;2023-06-24T16:14:22;4.25;;;2.80;;
42972;SDS011;28610;51.214;6.962;2023-06-24T16:17:07;7.30;;;3.00;;
42972;SDS011;28610;51.214;6.962;2023-06-24T16:19:53;6.85;;;3.13;;
42972;SDS011;28610;51.214;6.962;2023-06-24T16:22:39;6.68;;;2.70;;
42972;SDS011;28610;51.214;6.962;2023-06-24T16:25:24;8.23;;;2.95;;
42972;SDS011;28610;51.214;6.962;2023-06-24T16:28:10;6.47;;;3.00;;
42972;SDS011;28610;51.214;6.962;2023-06-24T16:30:57;6.57;;;3.17;;
42972;SDS011;28610;51.214;6.962;2023-06-24T16:33:43;5.45;;;3.03;;